createdAt,value
2017-12-20T00:00:25.704Z,4.10
2017-12-20T00:02:53.880Z,4.10
2017-12-20T00:05:22.001Z,4.20
2017-12-20T00:07:50.274Z,4.10
2017-12-20T00:10:18.459Z,4.20
2017-12-20T00:12:47.396Z,4.30
2017-12-20T00:15:15.549Z,4.20
2017-12-20T00:17:43.679Z,4.30
2017-12-20T00:20:11.861Z,4.20
2017-12-20T00:22:40.145Z,4.10
2017-12-20T00:25:09.092Z,3.90
2017-12-20T00:27:37.239Z,3.90
2017-12-20T00:30:05.377Z,4.00
2017-12-20T00:32:33.541Z,4.00
2017-12-20T00:35:01.676Z,4.00
2017-12-20T00:37:29.836Z,3.90
2017-12-20T00:39:57.980Z,3.90
2017-12-20T00:42:27.719Z,3.90
2017-12-20T00:44:55.865Z,3.90
2017-12-20T00:47:24.760Z,3.90
2017-12-20T00:49:53.801Z,3.90
2017-12-20T00:52:21.943Z,3.90
2017-12-20T00:54:50.140Z,3.90
2017-12-20T00:57:18.277Z,3.90
2017-12-20T00:59:47.182Z,4.00
2017-12-20T01:02:15.370Z,4.00
2017-12-20T01:04:43.516Z,4.10
2017-12-20T01:07:11.698Z,4.20
2017-12-20T01:09:39.845Z,4.30
2017-12-20T01:12:08.753Z,4.30
2017-12-20T01:14:37.676Z,4.40
2017-12-20T01:17:05.818Z,4.40
2017-12-20T01:19:34.093Z,4.40
2017-12-20T01:22:02.268Z,4.40
2017-12-20T01:24:31.168Z,4.50
2017-12-20T01:26:59.351Z,4.40
2017-12-20T01:29:27.485Z,4.50
2017-12-20T01:31:55.647Z,4.50
2017-12-20T01:34:23.817Z,4.50
2017-12-20T01:36:52.129Z,4.50
2017-12-20T01:39:21.032Z,4.50
2017-12-20T01:41:49.162Z,4.50
2017-12-20T01:44:17.340Z,4.50
2017-12-20T01:46:46.412Z,4.60
2017-12-20T01:49:14.576Z,4.60
2017-12-20T01:51:42.736Z,4.60
2017-12-20T01:54:11.032Z,4.60
2017-12-20T01:56:39.204Z,4.60
2017-12-20T01:59:07.336Z,4.60
2017-12-20T02:01:35.509Z,4.60
2017-12-20T02:04:03.640Z,4.60
2017-12-20T02:06:31.790Z,4.70
2017-12-20T02:09:00.008Z,4.60
2017-12-20T02:11:28.098Z,4.60
2017-12-20T02:13:57.007Z,4.60
2017-12-20T02:16:25.288Z,4.60
2017-12-20T02:18:53.430Z,4.70
2017-12-20T02:21:22.359Z,4.60
2017-12-20T02:23:50.503Z,4.60
2017-12-20T02:26:18.773Z,4.60
2017-12-20T02:28:47.672Z,4.60
2017-12-20T02:31:15.868Z,4.60
2017-12-20T02:33:44.018Z,4.60
2017-12-20T02:36:12.915Z,4.60
2017-12-20T02:38:41.072Z,4.60
2017-12-20T02:41:09.253Z,4.60
2017-12-20T02:43:38.148Z,4.60
2017-12-20T02:46:06.341Z,4.60
2017-12-20T02:48:34.478Z,4.60
2017-12-20T02:51:03.379Z,4.60
2017-12-20T02:53:32.468Z,4.50
2017-12-20T02:56:00.613Z,4.50
2017-12-20T02:58:28.775Z,4.50
2017-12-20T03:00:56.954Z,4.50
2017-12-20T03:03:25.084Z,4.50
2017-12-20T03:05:53.340Z,4.50
2017-12-20T03:08:21.468Z,4.50
2017-12-20T03:10:49.641Z,4.60
2017-12-20T03:13:17.791Z,4.60
2017-12-20T03:15:45.936Z,4.60
2017-12-20T03:18:14.868Z,4.70
2017-12-20T03:20:43.003Z,4.70
2017-12-20T03:23:12.041Z,4.70
2017-12-20T03:25:40.172Z,4.70
2017-12-20T03:28:08.312Z,4.70
2017-12-20T03:30:36.473Z,4.70
2017-12-20T03:33:04.609Z,4.70
2017-12-20T03:35:32.761Z,4.70
2017-12-20T03:38:01.667Z,4.70
2017-12-20T03:40:29.944Z,4.70
2017-12-20T03:42:58.072Z,4.70
2017-12-20T03:45:26.215Z,4.70
2017-12-20T03:47:54.371Z,4.70
2017-12-20T03:50:22.492Z,4.70
2017-12-20T03:52:50.664Z,4.70
2017-12-20T03:55:18.801Z,4.70
2017-12-20T03:57:47.097Z,4.80
2017-12-20T04:00:15.240Z,4.80
2017-12-20T04:02:43.377Z,4.80
2017-12-20T04:05:12.303Z,4.70
2017-12-20T04:07:42.541Z,4.70
2017-12-20T04:10:10.700Z,4.70
2017-12-20T04:12:38.845Z,4.70
2017-12-20T04:15:07.747Z,4.70
2017-12-20T04:17:36.040Z,4.70
2017-12-20T04:20:04.179Z,4.70
2017-12-20T04:22:33.112Z,4.80
2017-12-20T04:25:01.248Z,4.80
2017-12-20T04:27:29.392Z,4.80
2017-12-20T04:29:57.553Z,4.80
2017-12-20T04:32:25.689Z,4.80
2017-12-20T04:34:53.952Z,4.90
2017-12-20T04:37:22.092Z,4.80
2017-12-20T04:39:50.254Z,4.80
2017-12-20T04:42:18.413Z,4.80
2017-12-20T04:44:46.550Z,4.80
2017-12-20T04:47:14.712Z,4.80
2017-12-20T04:49:42.984Z,4.80
2017-12-20T04:52:11.909Z,4.80
2017-12-20T04:54:40.104Z,4.80
2017-12-20T04:57:08.288Z,4.80
2017-12-20T04:59:36.425Z,4.80
2017-12-20T05:02:04.562Z,4.90
2017-12-20T05:04:33.492Z,4.90
2017-12-20T05:07:01.764Z,4.90
2017-12-20T05:09:29.938Z,4.90
2017-12-20T05:11:58.078Z,4.90
2017-12-20T05:14:26.981Z,4.80
2017-12-20T05:16:55.148Z,4.80
2017-12-20T05:19:23.318Z,4.80
2017-12-20T05:21:52.252Z,4.70
2017-12-20T05:24:21.151Z,4.60
2017-12-20T05:26:49.288Z,4.60
2017-12-20T05:29:17.552Z,4.60
2017-12-20T05:31:46.463Z,4.60
2017-12-20T05:34:14.604Z,4.60
2017-12-20T05:36:42.800Z,4.70
2017-12-20T05:39:10.984Z,4.60
2017-12-20T05:41:39.124Z,4.70
2017-12-20T05:44:07.324Z,4.70
2017-12-20T05:46:35.513Z,4.70
2017-12-20T05:49:03.657Z,4.60
2017-12-20T05:51:31.796Z,4.70
2017-12-20T05:54:00.080Z,4.60
2017-12-20T05:56:28.260Z,4.60
2017-12-20T05:58:56.456Z,4.60
2017-12-20T06:01:25.391Z,4.60
2017-12-20T06:03:53.532Z,4.60
2017-12-20T06:06:21.717Z,4.60
2017-12-20T06:08:49.860Z,4.60
2017-12-20T06:11:18.767Z,4.50
2017-12-20T06:13:46.932Z,4.50
2017-12-20T06:16:15.831Z,4.50
2017-12-20T06:18:44.008Z,4.50
2017-12-20T06:21:12.147Z,4.50
2017-12-20T06:23:40.292Z,4.50
2017-12-20T06:26:08.461Z,4.60
2017-12-20T06:28:37.459Z,4.60
2017-12-20T06:31:05.631Z,4.60
2017-12-20T06:33:33.760Z,4.60
2017-12-20T06:36:02.799Z,4.60
2017-12-20T06:38:30.942Z,4.50
2017-12-20T06:40:59.096Z,4.50
2017-12-20T06:43:28.068Z,4.60
2017-12-20T06:45:56.224Z,4.60
2017-12-20T06:48:24.381Z,4.60
2017-12-20T06:50:52.566Z,4.60
2017-12-20T06:53:20.716Z,4.60
2017-12-20T06:55:48.865Z,4.70
2017-12-20T06:58:17.032Z,4.70
2017-12-20T07:00:45.934Z,4.70
2017-12-20T07:03:14.204Z,4.70
2017-12-20T07:05:42.348Z,4.70
2017-12-20T07:08:10.521Z,4.70
2017-12-20T07:10:38.704Z,4.70
2017-12-20T07:13:06.871Z,4.70
2017-12-20T07:15:35.019Z,4.70
2017-12-20T07:18:03.154Z,4.70
2017-12-20T07:23:19.418Z,4.70
2017-12-20T07:25:55.329Z,4.70
2017-12-20T07:28:30.672Z,4.70
2017-12-20T07:31:06.841Z,4.70
2017-12-20T07:33:43.236Z,4.80
2017-12-20T07:36:19.271Z,4.70
2017-12-20T07:38:54.756Z,4.80
2017-12-20T07:41:30.447Z,4.80
2017-12-20T07:44:07.276Z,4.80
2017-12-20T07:46:42.781Z,4.80
2017-12-20T07:49:18.844Z,4.80
2017-12-20T07:51:54.005Z,4.80
2017-12-20T07:54:44.380Z,4.80
2017-12-20T07:57:35.280Z,4.90
2017-12-20T08:00:25.642Z,4.90
2017-12-20T08:03:16.868Z,4.80
2017-12-20T08:06:07.536Z,4.80
2017-12-20T08:08:57.932Z,4.80
2017-12-20T08:11:26.269Z,4.70
2017-12-20T08:13:54.410Z,4.70
2017-12-20T08:16:22.542Z,4.70
2017-12-20T08:18:50.748Z,4.80
2017-12-20T08:21:19.687Z,4.80
2017-12-20T08:23:47.840Z,4.80
2017-12-20T08:26:15.987Z,4.90
2017-12-20T08:28:44.149Z,4.90
2017-12-20T08:31:12.299Z,4.90
2017-12-20T08:33:40.437Z,5.00
2017-12-20T08:36:08.604Z,5.00
2017-12-20T08:38:36.740Z,5.00
2017-12-20T08:41:04.916Z,5.10
2017-12-20T08:43:33.827Z,5.20
2017-12-20T08:46:02.108Z,5.10
2017-12-20T08:48:30.291Z,5.20
2017-12-20T08:50:59.213Z,5.10
2017-12-20T08:53:27.413Z,5.20
2017-12-20T08:55:55.556Z,5.10
2017-12-20T08:58:23.707Z,5.10
2017-12-20T09:00:51.856Z,5.10
2017-12-20T09:03:20.164Z,5.20
2017-12-20T09:05:48.390Z,5.20
2017-12-20T09:08:16.456Z,5.20
2017-12-20T09:10:44.617Z,5.20
2017-12-20T09:13:12.818Z,5.20
2017-12-20T09:15:41.730Z,5.20
2017-12-20T09:18:09.863Z,5.20
2017-12-20T09:20:38.043Z,5.20
2017-12-20T09:23:06.216Z,5.20
2017-12-20T09:25:34.364Z,5.10
2017-12-20T09:28:02.494Z,5.10
2017-12-20T09:30:30.652Z,5.10
2017-12-20T09:32:59.713Z,5.20
2017-12-20T09:35:27.861Z,5.20
2017-12-20T09:37:56.783Z,5.30
2017-12-20T09:40:24.919Z,5.30
2017-12-20T09:42:53.085Z,5.40
2017-12-20T09:45:21.221Z,5.30
2017-12-20T09:47:49.353Z,5.30
2017-12-20T09:50:17.633Z,5.30
2017-12-20T09:52:45.805Z,5.30
2017-12-20T09:55:13.977Z,5.30
2017-12-20T09:57:42.100Z,5.40
2017-12-20T10:00:11.041Z,5.50
2017-12-20T10:02:39.924Z,5.50
2017-12-20T10:05:08.060Z,5.50
2017-12-20T10:07:37.123Z,5.50
2017-12-20T10:10:05.264Z,5.50
2017-12-20T10:12:33.427Z,5.50
2017-12-20T10:15:01.556Z,5.60
2017-12-20T10:17:29.680Z,5.60
2017-12-20T10:19:57.862Z,5.70
2017-12-20T10:22:26.009Z,5.80
2017-12-20T10:24:54.274Z,5.80
2017-12-20T10:27:22.407Z,5.90
2017-12-20T10:29:50.597Z,5.90
2017-12-20T10:32:18.745Z,6.00
2017-12-20T10:34:46.883Z,6.00
2017-12-20T10:37:15.013Z,6.00
2017-12-20T10:39:43.166Z,6.00
2017-12-20T10:42:11.303Z,6.10
2017-12-20T10:44:39.608Z,6.10
2017-12-20T10:47:07.744Z,6.10
2017-12-20T10:49:35.878Z,6.10
2017-12-20T10:52:04.036Z,6.10
2017-12-20T10:54:32.207Z,6.10
2017-12-20T10:57:00.352Z,6.10
2017-12-20T10:59:28.476Z,6.10
2017-12-20T11:01:56.749Z,6.10
2017-12-20T11:04:24.888Z,6.10
2017-12-20T11:06:53.832Z,6.20
2017-12-20T11:09:22.720Z,6.20
2017-12-20T11:11:51.648Z,6.20
2017-12-20T11:14:19.811Z,6.20
2017-12-20T11:16:47.944Z,6.10
2017-12-20T11:19:16.071Z,6.10
2017-12-20T11:21:44.345Z,6.10
2017-12-20T11:24:12.489Z,6.20
2017-12-20T11:26:40.680Z,6.20
2017-12-20T11:29:08.820Z,6.30
2017-12-20T11:31:36.952Z,6.30
2017-12-20T11:34:05.132Z,6.30
2017-12-20T11:36:33.267Z,6.30
2017-12-20T11:39:01.520Z,6.40
2017-12-20T11:41:30.448Z,6.40
2017-12-20T11:43:58.627Z,6.40
2017-12-20T11:46:26.752Z,6.40
2017-12-20T11:48:55.708Z,6.40
2017-12-20T11:51:23.853Z,6.40
2017-12-20T11:53:51.985Z,6.50
2017-12-20T11:56:20.277Z,6.50
2017-12-20T11:58:49.177Z,6.40
2017-12-20T12:01:18.103Z,6.40
2017-12-20T12:03:46.240Z,6.40
2017-12-20T12:06:14.418Z,6.40
2017-12-20T12:08:42.576Z,6.40
2017-12-20T12:11:11.498Z,6.30
2017-12-20T12:13:39.773Z,6.30
2017-12-20T12:16:07.914Z,6.30
2017-12-20T12:18:36.856Z,6.20
2017-12-20T12:21:04.987Z,6.20
2017-12-20T12:23:33.171Z,6.20
2017-12-20T12:26:01.361Z,6.30
2017-12-20T12:28:29.496Z,6.30
2017-12-20T12:30:58.532Z,6.30
2017-12-20T12:33:26.696Z,6.30
2017-12-20T12:35:54.864Z,6.30
2017-12-20T12:38:23.026Z,6.30
2017-12-20T12:40:51.199Z,6.30
2017-12-20T12:43:20.123Z,6.20
2017-12-20T12:45:48.409Z,6.20
2017-12-20T12:48:16.566Z,6.30
2017-12-20T12:50:44.686Z,6.40
2017-12-20T12:53:12.861Z,6.40
2017-12-20T12:55:41.022Z,6.40
2017-12-20T12:58:09.172Z,6.50
2017-12-20T13:00:37.328Z,6.50
2017-12-20T13:03:05.461Z,6.50
2017-12-20T13:05:34.528Z,6.60
2017-12-20T13:08:02.717Z,6.60
2017-12-20T13:10:30.848Z,6.60
2017-12-20T13:12:59.005Z,6.60
2017-12-20T13:15:27.144Z,6.70
2017-12-20T13:17:55.296Z,6.70
2017-12-20T13:20:23.421Z,6.70
2017-12-20T13:22:51.736Z,6.70
2017-12-20T13:25:19.884Z,6.70
2017-12-20T13:27:48.056Z,6.70
2017-12-20T13:30:16.184Z,6.70
2017-12-20T13:32:44.368Z,6.70
2017-12-20T13:35:14.410Z,6.70
2017-12-20T13:37:42.568Z,6.70
2017-12-20T13:40:11.488Z,6.60
2017-12-20T13:42:39.629Z,6.60
2017-12-20T13:45:08.549Z,6.70
2017-12-20T13:47:36.688Z,6.70
2017-12-20T13:50:05.624Z,6.70
2017-12-20T13:52:33.756Z,6.70
2017-12-20T13:55:02.808Z,6.70
2017-12-20T13:57:30.980Z,6.70
2017-12-20T13:59:59.132Z,6.60
2017-12-20T14:02:27.304Z,6.60
2017-12-20T14:04:55.439Z,6.50
2017-12-20T14:07:23.633Z,6.50
2017-12-20T14:09:51.740Z,6.50
2017-12-20T14:12:20.042Z,6.50
2017-12-20T14:14:48.180Z,6.60
2017-12-20T14:17:16.320Z,6.60
2017-12-20T14:19:44.491Z,6.60
2017-12-20T14:22:12.646Z,6.60
2017-12-20T14:24:40.812Z,6.60
2017-12-20T14:27:08.956Z,6.50
2017-12-20T14:29:37.245Z,6.50
2017-12-20T14:32:05.381Z,6.50
2017-12-20T14:34:33.520Z,6.60
2017-12-20T14:37:01.685Z,6.60
2017-12-20T14:39:29.813Z,6.60
2017-12-20T14:41:57.964Z,6.70
2017-12-20T14:44:26.183Z,6.70
2017-12-20T14:46:54.280Z,6.70
2017-12-20T14:49:22.399Z,6.70
2017-12-20T14:51:50.580Z,6.70
2017-12-20T14:54:18.740Z,6.70
2017-12-20T14:56:46.889Z,6.80
2017-12-20T14:59:15.837Z,6.80
2017-12-20T15:01:43.955Z,6.80
2017-12-20T15:04:12.857Z,6.80
2017-12-20T15:06:41.012Z,6.80
2017-12-20T15:09:09.154Z,6.80
2017-12-20T15:11:37.310Z,6.80
2017-12-20T15:14:05.437Z,6.80
2017-12-20T15:16:34.384Z,6.80
2017-12-20T15:19:02.514Z,6.70
2017-12-20T15:21:30.667Z,6.70
2017-12-20T15:23:59.719Z,6.60
2017-12-20T15:26:27.859Z,6.60
2017-12-20T15:28:56.021Z,6.60
2017-12-20T15:31:24.175Z,6.60
2017-12-20T15:33:52.324Z,6.50
2017-12-20T15:36:20.465Z,6.40
2017-12-20T15:38:48.759Z,6.40
2017-12-20T15:41:16.907Z,6.40
2017-12-20T15:43:45.062Z,6.50
2017-12-20T15:46:14.001Z,6.30
2017-12-20T15:48:42.131Z,6.30
2017-12-20T15:51:10.276Z,6.30
2017-12-20T15:53:38.456Z,6.20
2017-12-20T15:56:06.591Z,6.20
2017-12-20T15:58:34.876Z,6.20
2017-12-20T16:01:03.071Z,6.20
2017-12-20T16:03:31.964Z,6.20
2017-12-20T16:06:00.113Z,6.20
2017-12-20T16:08:28.253Z,6.20
2017-12-20T16:10:56.437Z,6.10
2017-12-20T16:13:24.586Z,6.10
2017-12-20T16:15:52.888Z,6.10
2017-12-20T16:18:21.021Z,6.20
2017-12-20T16:20:49.921Z,6.10
2017-12-20T16:23:18.096Z,6.10
2017-12-20T16:25:46.252Z,6.10
2017-12-20T16:28:14.425Z,6.10
2017-12-20T16:30:42.591Z,6.20
2017-12-20T16:33:10.752Z,6.10
2017-12-20T16:35:39.056Z,6.10
2017-12-20T16:38:07.953Z,6.10
2017-12-20T16:40:36.139Z,6.10
2017-12-20T16:43:05.033Z,6.10
2017-12-20T16:45:33.188Z,6.10
2017-12-20T16:48:02.137Z,6.10
2017-12-20T16:50:30.416Z,6.10
2017-12-20T16:52:58.626Z,6.00
2017-12-20T16:55:27.526Z,6.00
2017-12-20T16:57:56.456Z,6.00
2017-12-20T17:00:24.590Z,6.00
2017-12-20T17:02:53.511Z,5.90
2017-12-20T17:05:21.660Z,5.90
2017-12-20T17:07:49.999Z,5.90
2017-12-20T17:10:18.197Z,5.90
2017-12-20T17:12:47.136Z,5.90
2017-12-20T17:15:15.274Z,5.90
2017-12-20T17:17:44.222Z,5.90
2017-12-20T17:20:12.356Z,5.90
2017-12-20T17:22:40.546Z,5.90
2017-12-20T17:25:08.692Z,5.90
2017-12-20T17:27:36.829Z,5.90
2017-12-20T17:30:05.094Z,5.90
2017-12-20T17:32:33.264Z,5.90
2017-12-20T17:35:01.441Z,5.90
2017-12-20T17:37:29.587Z,5.90
2017-12-20T17:39:57.768Z,5.90
2017-12-20T17:42:25.896Z,6.00
2017-12-20T17:44:54.806Z,6.00
2017-12-20T17:47:23.169Z,6.00
2017-12-20T17:49:51.272Z,6.00
2017-12-20T17:52:19.426Z,6.00
2017-12-20T17:54:47.597Z,6.00
2017-12-20T17:57:15.745Z,6.10
2017-12-20T17:59:43.937Z,6.00
2017-12-20T18:02:12.827Z,6.00
2017-12-20T18:04:41.000Z,6.00
2017-12-20T18:07:09.286Z,6.00
2017-12-20T18:09:37.462Z,6.00
2017-12-20T18:12:06.388Z,6.00
2017-12-20T18:14:34.544Z,6.00
2017-12-20T18:17:02.725Z,6.00
2017-12-20T18:19:30.861Z,6.00
2017-12-20T18:21:59.168Z,6.00
2017-12-20T18:24:28.074Z,6.00
2017-12-20T18:26:56.225Z,6.00
2017-12-20T18:29:24.376Z,6.10
2017-12-20T18:31:53.292Z,6.10
2017-12-20T18:34:21.501Z,6.10
2017-12-20T18:36:49.656Z,6.10
2017-12-20T18:39:17.797Z,6.10
2017-12-20T18:41:46.072Z,6.10
2017-12-20T18:44:14.227Z,6.10
2017-12-20T18:46:43.173Z,6.10
2017-12-20T18:49:11.336Z,6.10
2017-12-20T18:51:39.470Z,6.10
2017-12-20T18:54:08.429Z,6.10
2017-12-20T18:56:36.738Z,6.10
2017-12-20T18:59:05.643Z,6.00
2017-12-20T19:01:34.371Z,6.00
2017-12-20T19:04:02.645Z,6.10
2017-12-20T19:06:30.801Z,6.00
2017-12-20T19:08:58.938Z,6.00
2017-12-20T19:11:27.886Z,6.00
2017-12-20T19:13:56.044Z,6.00
2017-12-20T19:16:24.194Z,6.00
2017-12-20T19:18:52.488Z,6.00
2017-12-20T19:21:20.635Z,6.00
2017-12-20T19:23:48.877Z,6.00
2017-12-20T19:26:17.013Z,6.00
2017-12-20T19:28:45.182Z,6.10
2017-12-20T19:31:13.336Z,6.10
2017-12-20T19:33:42.393Z,6.10
2017-12-20T19:36:10.565Z,6.10
2017-12-20T19:38:38.750Z,6.10
2017-12-20T19:41:07.733Z,6.10
2017-12-20T19:43:35.893Z,6.10
2017-12-20T19:46:04.035Z,6.10
2017-12-20T19:48:32.196Z,6.20
2017-12-20T19:51:00.357Z,6.20
2017-12-20T19:53:28.681Z,6.20
2017-12-20T19:55:56.833Z,6.20
2017-12-20T19:58:25.765Z,6.10
2017-12-20T20:00:53.926Z,6.10
2017-12-20T20:03:22.092Z,6.10
2017-12-20T20:05:50.266Z,6.10
2017-12-20T20:08:18.418Z,6.10
2017-12-20T20:10:47.333Z,6.10
2017-12-20T20:13:15.617Z,6.10
2017-12-20T20:15:43.775Z,6.10
2017-12-20T20:18:12.669Z,6.10
2017-12-20T20:20:40.797Z,6.10
2017-12-20T20:23:08.984Z,6.10
2017-12-20T20:25:37.175Z,6.00
2017-12-20T20:28:05.331Z,6.00
2017-12-20T20:30:33.667Z,6.00
2017-12-20T20:33:01.804Z,5.90
2017-12-20T20:35:29.985Z,5.90
2017-12-20T20:37:58.133Z,6.00
2017-12-20T20:40:26.277Z,6.00
2017-12-20T20:42:55.212Z,6.00
2017-12-20T20:45:23.354Z,6.00
2017-12-20T20:47:51.572Z,6.00
2017-12-20T20:50:19.740Z,6.00
2017-12-20T20:52:47.895Z,6.00
2017-12-20T20:55:16.083Z,6.00
2017-12-20T20:57:44.214Z,6.00
2017-12-20T21:00:13.170Z,6.00
2017-12-20T21:02:41.319Z,6.00
2017-12-20T21:05:09.471Z,6.00
2017-12-20T21:07:37.639Z,6.00
2017-12-20T21:10:05.782Z,6.00
2017-12-20T21:12:33.963Z,6.00
2017-12-20T21:15:02.908Z,6.00
2017-12-20T21:17:31.140Z,6.00
2017-12-20T21:19:59.217Z,6.00
2017-12-20T21:22:27.398Z,6.00
2017-12-20T21:24:55.687Z,6.00
2017-12-20T21:27:23.829Z,6.00
2017-12-20T21:29:52.764Z,6.00
2017-12-20T21:32:20.944Z,6.00
2017-12-20T21:34:49.113Z,6.00
2017-12-20T21:37:17.256Z,6.00
2017-12-20T21:39:45.544Z,6.00
2017-12-20T21:42:13.682Z,6.00
2017-12-20T21:44:41.892Z,6.10
2017-12-20T21:47:10.026Z,6.10
2017-12-20T21:49:38.210Z,6.10
2017-12-20T21:52:06.353Z,6.10
2017-12-20T21:54:34.537Z,6.10
2017-12-20T21:57:02.672Z,6.10
2017-12-20T21:59:30.981Z,6.10
2017-12-20T22:01:59.125Z,6.10
2017-12-20T22:04:27.288Z,6.20
2017-12-20T22:06:55.472Z,6.10
2017-12-20T22:09:23.609Z,6.10
2017-12-20T22:11:51.776Z,6.10
2017-12-20T22:14:20.720Z,6.10
2017-12-20T22:16:48.943Z,6.10
2017-12-20T22:19:17.868Z,6.10
2017-12-20T22:21:46.044Z,6.10
2017-12-20T22:24:14.198Z,6.10
2017-12-20T22:26:42.352Z,6.20
2017-12-20T22:29:10.521Z,6.20
2017-12-20T22:31:39.443Z,6.20
2017-12-20T22:34:07.573Z,6.20
2017-12-20T22:36:35.887Z,6.20
2017-12-20T22:39:04.067Z,6.20
2017-12-20T22:41:32.284Z,6.20
2017-12-20T22:44:00.421Z,6.20
2017-12-20T22:46:28.595Z,6.10
2017-12-20T22:48:56.757Z,6.10
2017-12-20T22:51:24.911Z,6.10
2017-12-20T22:53:53.976Z,6.10
2017-12-20T22:56:22.128Z,6.10
2017-12-20T22:58:50.297Z,6.10
2017-12-20T23:01:18.457Z,6.10
2017-12-20T23:03:46.628Z,6.10
2017-12-20T23:06:14.764Z,6.20
2017-12-20T23:08:43.674Z,6.10
2017-12-20T23:11:12.724Z,6.10
2017-12-20T23:13:40.876Z,6.10
2017-12-20T23:16:09.057Z,6.10
2017-12-20T23:18:37.220Z,6.10
2017-12-20T23:21:05.396Z,6.10
2017-12-20T23:23:33.576Z,6.10
2017-12-20T23:26:01.892Z,6.10
2017-12-20T23:28:30.026Z,6.10
2017-12-20T23:30:58.173Z,6.10
2017-12-20T23:33:26.375Z,6.10
2017-12-20T23:35:54.507Z,6.10
2017-12-20T23:38:22.645Z,6.00
2017-12-20T23:40:50.813Z,6.00
2017-12-20T23:43:18.961Z,6.00
2017-12-20T23:45:47.246Z,6.00
2017-12-20T23:48:15.376Z,6.00
2017-12-20T23:50:43.550Z,6.00
2017-12-20T23:53:11.720Z,6.00
2017-12-20T23:55:39.866Z,6.00
2017-12-20T23:58:08.028Z,5.90
